Current Conditions
Misty
Conditions



Pressure
1022.92 (hPa) - 30.21 (inHG)
Visibility

2.5 (km) - 1.6 (miles)
Temperature
1  °C
Temperature
1  °C
Dewpoint
100  %
 Humidity
Wind Speed
4.0  m/s
9  mph
14  km/h
8  kts
Wind Direction
N
45°
E
90°
135°
S
180°
225°
W
270°
315°
 230°

South West
Airport Data
EFHK
Helsinki Vantaa Airport
Metar :EFHK 231650Z 23008KT 2500 BR FEW001 OVC002 01/01 Q1023 TEMPO 3000
Sun 23rd January 18:50 pm
Raw Metar Info
Raw METAR is the most common format in the world for the transmission of observational weather data. It is highly standardized through the International Civil Aviation Organization (ICAO), which allows it to be understood throughout most of the world.
API Info
Data Provided by
https://www.checkwx.com/weather/EFHK

Aviation Weather providing METAR, TAF, AIRMET, SIGMET and OUTLOOK Weather Reports
© Info
CSS/SVG/PHP scripts were developed by weather34 for use in the weather34 template © 2015-2022

Guide Info provided by Metar-Wikipedia